South Bend, IN

9:51 PM EDT on April 26, 2015 (GMT -0400)
South Bend Regional | | Change Station
CLOSE
Current Station
Airport
Location: South Bend,
Elevation: 774 ft
Nearby Weather Stations

Elev 774 ft 41.71 °N, 86.32 °W | Updated 57 minutes ago

Clear
Clear
46 °F
Feels Like 41 °F
N
12
Wind Variable Wind from NNW

Today
High -- | Low -- °F
--% Chance of Precip.
Yesterday
High -- | Low -- °F
Precip. -- in
6:49 AM 8:37 PM
First Quarter, 60% visible
Pressure 29.98 in
Visibility 10.0 miles
Clouds Clear
Windchill 41 °F
Dew Point 24 °F
Humidity 42%
Rainfall 0.00 in
Snow Depth Not available.
UV 0 out of 12
Pollen 10.80 out of 12
Air Quality Not available.
Flu Activity Local Activity
METAR KSBN 270054Z 34010KT 10SM CLR 08/M04 A2997 RMK AO2 SLP152 T00781044

More Conditions Fewer Conditions

Pressure 29.98 in
Visibility 10.0 miles
Clouds Clear
Windchill 41 °F
Dew Point 24 °F
Humidity 42%
Rainfall 0.00 in
Snow Depth Not available.
UV 0 out of 12
Pollen 10.80 out of 12
Air Quality Not available.
Flu Activity Local Activity
METAR KSBN 270054Z 34010KT 10SM CLR 08/M04 A2997 RMK AO2 SLP152 T00781044

More Conditions Fewer Conditions

The full scope of the disaster following a powerful 7.8-magnitude earthquake in Nepal may not come into view for days, but global charities are already sending emergency aid. Click to see how you can help.

10-Day Weather Forecast

Almanac

Astronomy

Apr. 26, 2015 Rise Set
Actual Time
Civil Twilight
Nautical Twilight
Astronomical Twilight
Moon
Length of Visible Light
Length of Day
Tomorrow will be .
, % of the Moon is Illuminated

Today's Extremes

State Highs State Lows

Community

WunderPhotos

Upload Photos

1,817,202 photos uploaded!

WunderBlogs® & News

Nearby

Air Quality

  Air Quality AQ Index Pollutant
Not available.

Snow Depth

Station Depth Elevation

Earthquake Activity

City Distance Mag. Time & Date
Minimum magnitude displayed is 2.5.

Coastal Water Temperatures

Place Temperature

Stations

Nearby Weather Stations

Station Location Temp. Windchill Dew Point Humidity Wind Precip. Elev Updated Type